Time;durP1;ratioP1;P1;durP2;ratioP2;P2;SDS_P1;SDS_P2;PMS_P1;PMS_P2;Temp;Humidity;BMP_temperature;BMP_pressure;BME280_temperature;BME280_humidity;BME280_pressure;Samples;Min_cycle;Max_cycle;Signal;HPM_P1;HPM_P2
2022/05/23 00:00:17;;;;;;;3.28;1.48;;;;;;;;;;5065490;28;20486;-76
2022/05/23 00:02:45;;;;;;;5.85;1.90;;;;;;;;;;5064636;28;20052;-77
2022/05/23 00:05:13;;;;;;;8.48;3.25;;;;;;;;;;5064860;28;20139;-76
2022/05/23 00:07:41;;;;;;;6.78;1.77;;;;;;;;;;5064782;28;20152;-76
2022/05/23 00:10:09;;;;;;;5.38;2.33;;;;;;;;;;5064706;28;20120;-76
2022/05/23 00:12:37;;;;;;;8.25;2.00;;;;;;;;;;5065278;28;20056;-76
2022/05/23 00:15:08;;;;;;;5.70;1.95;;;;;;;;;;5063434;28;20057;-76
2022/05/23 00:17:36;;;;;;;6.00;2.38;;;;;;;;;;5055195;28;20083;-77
2022/05/23 00:20:04;;;;;;;5.50;2.33;;;;;;;;;;5063454;28;20056;-77
2022/05/23 00:22:31;;;;;;;5.18;2.00;;;;;;;;;;5046238;28;20115;-77
2022/05/23 00:24:58;;;;;;;6.05;2.28;;;;;;;;;;5046239;28;20076;-76
2022/05/23 00:27:26;;;;;;;8.73;2.33;;;;;;;;;;5044780;28;20080;-76
2022/05/23 00:29:54;;;;;;;7.22;2.40;;;;;;;;;;5046518;28;20136;-77
2022/05/23 00:35:20;;;;;;;10.27;2.55;;;;;;;;;;5063129;28;20072;-76
2022/05/23 00:37:51;;;;;;;9.32;2.65;;;;;;;;;;5064566;28;20056;-76
2022/05/23 00:40:31;;;;;;;8.32;2.60;;;;;;;;;;5060991;28;20127;-76
2022/05/23 00:43:14;;;;;;;7.10;2.88;;;;;;;;;;5064794;28;20051;-76
2022/05/23 00:45:44;;;;;;;8.25;3.03;;;;;;;;;;5065397;28;20052;-76
2022/05/23 00:48:11;;;;;;;5.40;2.50;;;;;;;;;;5066019;28;20087;-76
2022/05/23 00:50:40;;;;;;;7.47;3.00;;;;;;;;;;5046564;28;20075;-76
2022/05/23 00:53:08;;;;;;;7.97;3.05;;;;;;;;;;5065354;28;20090;-76
2022/05/23 00:55:44;;;;;;;5.32;2.85;;;;;;;;;;5064106;28;20135;-76
2022/05/23 00:58:14;;;;;;;8.02;2.60;;;;;;;;;;5063746;28;20140;-76
2022/05/23 01:00:41;;;;;;;5.60;2.70;;;;;;;;;;5064225;28;20159;-76
2022/05/23 01:03:11;;;;;;;6.00;3.03;;;;;;;;;;5045618;28;20076;-76
2022/05/23 01:05:38;;;;;;;6.57;3.22;;;;;;;;;;5045906;28;20044;-76
2022/05/23 01:08:06;;;;;;;10.15;3.15;;;;;;;;;;5063842;28;20465;-76
2022/05/23 01:10:34;;;;;;;4.63;3.15;;;;;;;;;;5063783;28;20140;-76
2022/05/23 01:13:01;;;;;;;10.50;3.22;;;;;;;;;;5047473;28;20125;-77
2022/05/23 01:15:30;;;;;;;8.85;3.25;;;;;;;;;;5063119;28;20131;-77
2022/05/23 01:17:57;;;;;;;5.75;2.92;;;;;;;;;;5063195;28;20045;-76
2022/05/23 01:20:25;;;;;;;8.63;3.80;;;;;;;;;;5062927;28;20481;-76
2022/05/23 01:23:12;;;;;;;7.25;3.40;;;;;;;;;;5064810;28;20164;-76
2022/05/23 01:25:41;;;;;;;8.18;3.33;;;;;;;;;;5063809;28;20044;-76
2022/05/23 01:28:09;;;;;;;9.27;3.40;;;;;;;;;;5045797;28;20532;-76
2022/05/23 01:30:36;;;;;;;7.03;3.35;;;;;;;;;;5064538;28;20458;-76
2022/05/23 01:33:04;;;;;;;11.55;3.53;;;;;;;;;;5063453;28;20103;-77
2022/05/23 01:35:31;;;;;;;7.35;3.40;;;;;;;;;;5064684;28;20139;-77
2022/05/23 01:37:59;;;;;;;8.32;3.60;;;;;;;;;;5046165;28;20091;-77
2022/05/23 01:40:26;;;;;;;14.52;3.85;;;;;;;;;;5049619;28;20136;-77
2022/05/23 01:42:53;;;;;;;5.90;3.50;;;;;;;;;;5064492;28;20059;-77
2022/05/23 01:45:23;;;;;;;12.77;3.63;;;;;;;;;;5063275;28;20048;-77
2022/05/23 01:47:50;;;;;;;9.32;3.75;;;;;;;;;;5064843;28;20084;-76
2022/05/23 01:50:17;;;;;;;9.60;3.85;;;;;;;;;;5063490;28;20068;-77
2022/05/23 01:52:44;;;;;;;10.70;3.40;;;;;;;;;;5063711;28;20145;-76
2022/05/23 01:55:11;;;;;;;8.30;3.90;;;;;;;;;;5064646;28;20448;-76
2022/05/23 01:57:39;;;;;;;14.50;6.05;;;;;;;;;;5066898;28;20132;-76
2022/05/23 02:02:53;;;;;;;8.82;4.13;;;;;;;;;;5067862;28;20456;-76
2022/05/23 02:05:21;;;;;;;11.10;3.42;;;;;;;;;;5066094;28;20084;-76
2022/05/23 02:07:48;;;;;;;9.50;3.58;;;;;;;;;;5049293;28;20135;-76
2022/05/23 02:10:15;;;;;;;12.98;3.42;;;;;;;;;;5066508;28;20106;-76
2022/05/23 02:12:42;;;;;;;10.93;4.40;;;;;;;;;;5067336;28;20136;-76
2022/05/23 02:15:10;;;;;;;7.85;3.42;;;;;;;;;;5065819;28;20141;-76
2022/05/23 02:17:37;;;;;;;6.65;3.55;;;;;;;;;;5065401;28;20576;-77
2022/05/23 02:20:05;;;;;;;12.38;4.43;;;;;;;;;;5065873;28;20162;-76
2022/05/23 02:22:32;;;;;;;9.60;3.80;;;;;;;;;;5065258;28;20052;-76
2022/05/23 02:24:59;;;;;;;9.07;4.30;;;;;;;;;;5048474;28;20147;-76
2022/05/23 02:27:26;;;;;;;6.50;4.22;;;;;;;;;;5046608;28;20556;-76
2022/05/23 02:29:54;;;;;;;7.82;3.90;;;;;;;;;;5067875;28;20087;-76
2022/05/23 02:32:21;;;;;;;7.15;4.13;;;;;;;;;;5066055;28;20117;-76
2022/05/23 02:34:48;;;;;;;10.55;3.85;;;;;;;;;;5067212;28;20076;-76
2022/05/23 02:37:15;;;;;;;6.65;3.78;;;;;;;;;;5065985;28;20155;-76
2022/05/23 02:39:42;;;;;;;6.35;3.70;;;;;;;;;;5048593;28;20048;-76
2022/05/23 02:42:14;;;;;;;11.52;3.92;;;;;;;;;;5066697;28;20052;-77
2022/05/23 02:44:41;;;;;;;14.00;3.95;;;;;;;;;;5066796;28;20068;-76
2022/05/23 02:47:08;;;;;;;8.82;4.03;;;;;;;;;;5067248;28;20123;-77
2022/05/23 02:49:36;;;;;;;12.13;3.88;;;;;;;;;;5065367;28;20110;-76
2022/05/23 02:52:03;;;;;;;7.57;4.28;;;;;;;;;;5066619;28;20064;-76
2022/05/23 02:54:30;;;;;;;8.32;4.20;;;;;;;;;;5066361;28;20091;-76
2022/05/23 02:56:57;;;;;;;10.73;4.20;;;;;;;;;;5066897;28;20051;-77
2022/05/23 02:59:24;;;;;;;8.93;4.18;;;;;;;;;;5066397;28;20048;-77
2022/05/23 03:04:37;;;;;;;10.63;4.10;;;;;;;;;;5052211;28;20040;-77
2022/05/23 03:07:05;;;;;;;7.90;3.92;;;;;;;;;;5066816;28;20247;-77
2022/05/23 03:09:32;;;;;;;11.80;4.38;;;;;;;;;;5065112;28;20151;-76
2022/05/23 03:12:00;;;;;;;9.40;4.28;;;;;;;;;;5066080;28;20056;-77
2022/05/23 03:14:28;;;;;;;6.80;4.13;;;;;;;;;;5064623;28;20143;-76
2022/05/23 03:16:59;;;;;;;6.65;3.75;;;;;;;;;;5065493;28;20080;-77
2022/05/23 03:19:27;;;;;;;13.10;4.18;;;;;;;;;;5065974;28;20060;-77
2022/05/23 03:27:26;;;;;;;15.43;4.85;;;;;;;;;;5064984;28;20446;-76
2022/05/23 03:29:53;;;;;;;10.32;4.82;;;;;;;;;;5066157;28;20135;-77
2022/05/23 03:32:20;;;;;;;9.75;4.78;;;;;;;;;;5064014;28;20822;-77
2022/05/23 03:34:47;;;;;;;7.93;4.47;;;;;;;;;;5048002;28;20167;-77
2022/05/23 03:37:15;;;;;;;7.32;4.38;;;;;;;;;;5064853;28;20512;-77
2022/05/23 03:39:43;;;;;;;8.43;3.85;;;;;;;;;;5046206;28;20165;-77
2022/05/23 03:42:10;;;;;;;7.75;3.83;;;;;;;;;;5060137;28;20492;-77
2022/05/23 03:44:37;;;;;;;10.23;5.00;;;;;;;;;;5065611;28;20131;-77
2022/05/23 03:47:04;;;;;;;14.00;4.50;;;;;;;;;;5048022;28;20052;-77
2022/05/23 03:49:32;;;;;;;8.30;4.70;;;;;;;;;;5064853;28;20417;-77
2022/05/23 03:51:59;;;;;;;10.70;4.30;;;;;;;;;;5065629;28;20044;-77
2022/05/23 03:54:27;;;;;;;14.27;4.85;;;;;;;;;;5049242;28;20080;-77
2022/05/23 03:57:02;;;;;;;8.38;4.45;;;;;;;;;;5070531;28;20092;-77
2022/05/23 03:59:29;;;;;;;10.15;5.38;;;;;;;;;;5068148;28;20151;-77
2022/05/23 04:01:57;;;;;;;11.15;5.57;;;;;;;;;;5065271;28;20165;-77
2022/05/23 04:04:26;;;;;;;10.05;5.25;;;;;;;;;;5064375;28;20053;-77
2022/05/23 04:06:53;;;;;;;12.48;4.93;;;;;;;;;;5047794;28;20143;-76
2022/05/23 04:09:20;;;;;;;9.25;4.78;;;;;;;;;;5064603;28;20159;-77
2022/05/23 04:11:47;;;;;;;12.63;5.70;;;;;;;;;;5064535;28;20076;-76
2022/05/23 04:14:14;;;;;;;12.07;5.25;;;;;;;;;;5064556;28;20573;-77
2022/05/23 04:16:45;;;;;;;11.80;4.40;;;;;;;;;;5064812;28;20585;-77
2022/05/23 04:19:13;;;;;;;8.70;4.35;;;;;;;;;;5065638;28;20163;-77
2022/05/23 04:21:41;;;;;;;7.47;4.07;;;;;;;;;;5046150;28;20045;-76
2022/05/23 04:24:09;;;;;;;16.50;6.13;;;;;;;;;;5065158;28;20083;-76
2022/05/23 04:26:36;;;;;;;21.33;5.63;;;;;;;;;;5062627;28;20631;-76
2022/05/23 04:29:04;;;;;;;12.38;5.43;;;;;;;;;;5065231;28;20084;-76
2022/05/23 04:31:31;;;;;;;18.45;4.60;;;;;;;;;;5063417;28;20102;-76
2022/05/23 04:36:44;;;;;;;20.55;5.05;;;;;;;;;;5064021;28;20747;-76
2022/05/23 04:39:11;;;;;;;13.63;4.95;;;;;;;;;;5065604;28;20102;-77
2022/05/23 04:41:38;;;;;;;12.65;4.93;;;;;;;;;;5063729;28;20657;-76
2022/05/23 04:44:07;;;;;;;16.40;4.90;;;;;;;;;;5065198;28;20090;-76
2022/05/23 04:46:34;;;;;;;11.45;5.30;;;;;;;;;;5064222;28;20068;-76
2022/05/23 04:52:07;;;;;;;18.43;4.80;;;;;;;;;;5020909;28;20522;-76
2022/05/23 04:54:34;;;;;;;9.68;4.78;;;;;;;;;;5021924;28;20072;-76
2022/05/23 04:57:01;;;;;;;14.48;4.35;;;;;;;;;;5041529;28;20047;-76
2022/05/23 04:59:28;;;;;;;13.20;5.00;;;;;;;;;;5064674;28;20056;-76
2022/05/23 05:01:55;;;;;;;8.80;4.55;;;;;;;;;;5064930;28;20135;-77
2022/05/23 05:04:22;;;;;;;9.00;4.13;;;;;;;;;;5063965;28;20147;-76
2022/05/23 05:06:50;;;;;;;9.48;4.43;;;;;;;;;;5065039;28;20151;-76
2022/05/23 05:09:17;;;;;;;12.18;4.10;;;;;;;;;;5046426;28;20102;-76
2022/05/23 05:11:44;;;;;;;29.23;5.20;;;;;;;;;;5063453;28;20489;-76
2022/05/23 05:14:11;;;;;;;11.30;5.03;;;;;;;;;;5063906;28;20088;-76
2022/05/23 05:16:38;;;;;;;11.05;4.88;;;;;;;;;;5062433;28;20140;-76
2022/05/23 05:19:05;;;;;;;10.88;4.93;;;;;;;;;;5064470;28;20060;-77
2022/05/23 05:21:33;;;;;;;7.75;4.55;;;;;;;;;;5046654;28;20150;-76
2022/05/23 05:24:06;;;;;;;13.65;4.22;;;;;;;;;;5043663;28;20061;-76
2022/05/23 05:26:33;;;;;;;13.40;4.35;;;;;;;;;;5045513;28;20059;-76
2022/05/23 05:29:00;;;;;;;9.90;4.03;;;;;;;;;;5062741;28;20160;-76
2022/05/23 05:31:35;;;;;;;18.80;5.22;;;;;;;;;;5063323;28;20071;-76
2022/05/23 05:34:04;;;;;;;8.80;3.80;;;;;;;;;;5063811;28;20088;-76
2022/05/23 05:36:34;;;;;;;8.15;4.18;;;;;;;;;;5064502;28;20697;-76
2022/05/23 05:39:05;;;;;;;9.73;3.58;;;;;;;;;;5068796;28;20080;-76
2022/05/23 05:41:54;;;;;;;8.65;4.63;;;;;;;;;;5067340;28;20120;-76
2022/05/23 05:44:23;;;;;;;17.98;4.75;;;;;;;;;;5066174;28;20132;-77
2022/05/23 05:46:53;;;;;;;22.25;3.53;;;;;;;;;;5067273;28;20123;-76
2022/05/23 05:49:42;;;;;;;6.15;3.70;;;;;;;;;;5065570;28;20143;-76
2022/05/23 05:52:10;;;;;;;10.98;3.47;;;;;;;;;;5048531;28;20057;-76
2022/05/23 05:54:39;;;;;;;13.95;4.50;;;;;;;;;;5068259;28;20159;-78
2022/05/23 05:57:07;;;;;;;14.27;4.80;;;;;;;;;;5049180;28;20052;-77
2022/05/23 05:59:35;;;;;;;8.80;3.92;;;;;;;;;;5063386;28;20076;-77
2022/05/23 06:02:02;;;;;;;13.10;3.72;;;;;;;;;;5055541;28;20143;-75
2022/05/23 06:04:29;;;;;;;8.95;3.50;;;;;;;;;;5066121;28;20044;-77
2022/05/23 06:12:28;;;;;;;9.63;3.35;;;;;;;;;;5067458;28;20161;-77
2022/05/23 06:14:57;;;;;;;7.43;3.05;;;;;;;;;;5049455;28;20449;-77
2022/05/23 06:17:24;;;;;;;25.42;4.20;;;;;;;;;;5067835;28;20079;-77
2022/05/23 06:19:51;;;;;;;10.60;3.10;;;;;;;;;;5068819;28;20442;-76
2022/05/23 06:22:19;;;;;;;10.73;2.92;;;;;;;;;;5066784;28;20131;-78
2022/05/23 06:24:48;;;;;;;6.13;2.55;;;;;;;;;;5068942;28;20553;-76
2022/05/23 06:27:16;;;;;;;6.22;2.60;;;;;;;;;;5065677;28;20691;-77
2022/05/23 06:29:44;;;;;;;11.75;2.90;;;;;;;;;;5067313;28;20116;-77
2022/05/23 06:32:11;;;;;;;9.63;2.90;;;;;;;;;;5046878;28;20077;-77
2022/05/23 06:34:39;;;;;;;5.03;3.05;;;;;;;;;;5066103;28;20080;-77
2022/05/23 06:37:06;;;;;;;13.18;2.80;;;;;;;;;;5070617;28;20084;-78
2022/05/23 06:39:33;;;;;;;14.70;2.97;;;;;;;;;;5068839;28;20135;-78
2022/05/23 06:42:00;;;;;;;10.98;2.53;;;;;;;;;;5066071;28;20053;-77
2022/05/23 06:44:27;;;;;;;10.55;2.50;;;;;;;;;;5065197;28;20729;-77
2022/05/23 06:46:55;;;;;;;8.20;2.38;;;;;;;;;;5046461;28;20079;-77
2022/05/23 06:49:22;;;;;;;14.38;2.40;;;;;;;;;;5048008;28;20545;-76
2022/05/23 06:51:51;;;;;;;8.73;2.30;;;;;;;;;;5060639;28;20121;-77
2022/05/23 06:54:20;;;;;;;8.93;2.10;;;;;;;;;;5063658;28;20064;-77
2022/05/23 06:56:48;;;;;;;5.07;2.05;;;;;;;;;;5063995;28;20139;-77
2022/05/23 06:59:16;;;;;;;6.28;1.90;;;;;;;;;;5044482;28;20827;-77
2022/05/23 07:01:46;;;;;;;8.75;2.10;;;;;;;;;;5043779;28;20049;-76
2022/05/23 07:04:13;;;;;;;14.93;2.35;;;;;;;;;;5057014;28;20451;-77
2022/05/23 07:12:20;;;;;;;11.77;2.20;;;;;;;;;;5065240;28;20083;-77
2022/05/23 07:14:53;;;;;;;4.22;2.28;;;;;;;;;;5065520;28;20147;-78
2022/05/23 07:17:21;;;;;;;7.95;1.90;;;;;;;;;;5046726;28;20135;-77
2022/05/23 07:19:48;;;;;;;6.78;2.03;;;;;;;;;;5045815;28;20048;-77
2022/05/23 07:22:16;;;;;;;14.57;2.15;;;;;;;;;;5046727;28;20114;-78
2022/05/23 07:24:44;;;;;;;11.25;2.00;;;;;;;;;;5064480;28;20143;-77
2022/05/23 07:27:12;;;;;;;5.97;2.20;;;;;;;;;;5047877;28;20048;-77
2022/05/23 07:29:39;;;;;;;4.20;1.80;;;;;;;;;;5065199;28;20055;-77
2022/05/23 07:32:08;;;;;;;21.33;2.95;;;;;;;;;;5065025;28;20151;-77
2022/05/23 07:34:35;;;;;;;4.60;1.70;;;;;;;;;;5063876;28;20072;-77
2022/05/23 07:37:02;;;;;;;4.85;1.58;;;;;;;;;;5064496;28;20164;-77
2022/05/23 07:39:30;;;;;;;2.88;1.42;;;;;;;;;;5064601;28;20145;-77
2022/05/23 07:41:57;;;;;;;4.25;1.67;;;;;;;;;;5064577;28;20237;-78
2022/05/23 07:44:24;;;;;;;11.15;1.75;;;;;;;;;;5064561;28;20173;-77
2022/05/23 07:46:53;;;;;;;8.05;1.63;;;;;;;;;;5064672;28;20165;-77
2022/05/23 07:49:20;;;;;;;3.75;1.48;;;;;;;;;;5064440;28;20050;-77
2022/05/23 07:51:47;;;;;;;4.85;1.63;;;;;;;;;;5064405;28;20130;-76
2022/05/23 08:02:33;;;;;;;7.38;1.70;;;;;;;;;;5063870;28;20139;-76
2022/05/23 08:05:00;;;;;;;5.53;1.85;;;;;;;;;;5063088;28;20814;-75
2022/05/23 08:07:28;;;;;;;4.82;1.48;;;;;;;;;;5063304;28;20131;-74
2022/05/23 08:10:00;;;;;;;2.70;1.45;;;;;;;;;;5064623;28;20832;-76
2022/05/23 08:12:28;;;;;;;14.48;1.98;;;;;;;;;;5046337;28;20152;-75
2022/05/23 08:14:56;;;;;;;6.32;1.90;;;;;;;;;;5047254;28;20072;-75
2022/05/23 08:17:26;;;;;;;8.65;2.25;;;;;;;;;;5067796;28;20048;-76
2022/05/23 08:19:54;;;;;;;7.32;1.67;;;;;;;;;;5045416;28;20075;-74
2022/05/23 08:22:22;;;;;;;4.43;1.60;;;;;;;;;;5064056;28;20135;-78
2022/05/23 08:24:50;;;;;;;4.90;1.27;;;;;;;;;;5061113;28;20062;-77
2022/05/23 08:27:17;;;;;;;6.50;1.42;;;;;;;;;;5061613;28;20673;-78
2022/05/23 08:29:45;;;;;;;7.72;1.63;;;;;;;;;;5062609;28;20165;-78
2022/05/23 08:32:14;;;;;;;4.18;1.60;;;;;;;;;;5063472;28;20148;-78
2022/05/23 08:34:41;;;;;;;3.13;1.33;;;;;;;;;;5062406;28;20056;-78
2022/05/23 08:37:09;;;;;;;10.40;1.60;;;;;;;;;;5062477;28;20567;-77
2022/05/23 08:39:36;;;;;;;12.10;1.48;;;;;;;;;;5062904;28;20093;-78
2022/05/23 08:42:12;;;;;;;3.00;1.17;;;;;;;;;;5059992;28;20135;-77
2022/05/23 08:44:54;;;;;;;5.55;2.00;;;;;;;;;;5041942;28;20136;-76
2022/05/23 08:47:27;;;;;;;7.10;1.40;;;;;;;;;;5041436;28;20079;-74
2022/05/23 08:50:13;;;;;;;6.40;1.63;;;;;;;;;;5060030;28;20111;-74
2022/05/23 08:52:49;;;;;;;4.38;1.45;;;;;;;;;;5060597;28;20919;-74
2022/05/23 08:55:27;;;;;;;9.77;1.85;;;;;;;;;;5046450;28;20083;-74
2022/05/23 08:58:09;;;;;;;9.40;1.77;;;;;;;;;;5062710;28;20084;-74
2022/05/23 09:00:38;;;;;;;5.90;1.20;;;;;;;;;;5061118;28;20151;-74
2022/05/23 09:03:06;;;;;;;4.95;1.52;;;;;;;;;;5061807;28;20190;-75
2022/05/23 09:05:35;;;;;;;2.92;1.45;;;;;;;;;;5043335;28;20048;-77
2022/05/23 09:08:23;;;;;;;2.65;1.42;;;;;;;;;;5046985;28;20546;-74
2022/05/23 09:10:54;;;;;;;6.40;1.60;;;;;;;;;;5046113;28;20580;-77
2022/05/23 09:13:23;;;;;;;5.20;1.33;;;;;;;;;;5047772;28;20726;-78
2022/05/23 09:15:52;;;;;;;5.65;1.73;;;;;;;;;;5063938;28;20127;-78
2022/05/23 09:18:22;;;;;;;191.13;27.95;;;;;;;;;;5026402;28;20871;-77
2022/05/23 09:20:54;;;;;;;5.78;1.30;;;;;;;;;;5045874;28;20543;-77
2022/05/23 09:23:27;;;;;;;3.58;1.35;;;;;;;;;;5045253;28;20110;-76
2022/05/23 09:25:58;;;;;;;6.32;1.50;;;;;;;;;;5047366;28;20055;-76
2022/05/23 09:28:34;;;;;;;5.18;1.27;;;;;;;;;;5045008;28;20052;-76
2022/05/23 09:31:10;;;;;;;4.57;1.27;;;;;;;;;;5028508;28;21129;-76
2022/05/23 09:33:48;;;;;;;2.50;1.02;;;;;;;;;;5044578;28;20183;-76
2022/05/23 09:36:38;;;;;;;5.80;1.33;;;;;;;;;;5058536;28;20131;-77
2022/05/23 09:39:07;;;;;;;5.45;1.25;;;;;;;;;;5043587;28;20163;-77
2022/05/23 09:48:03;;;;;;;6.82;1.40;;;;;;;;;;5068945;28;20091;-77
2022/05/23 09:53:35;;;;;;;5.95;1.30;;;;;;;;;;5039032;23;20672;-78
2022/05/23 09:56:41;;;;;;;2.65;1.33;;;;;;;;;;5012917;28;20076;-79
2022/05/23 09:59:21;;;;;;;3.28;0.93;;;;;;;;;;4908959;29;20062;-78
2022/05/23 10:01:50;;;;;;;5.97;1.45;;;;;;;;;;4930724;28;20102;-80
2022/05/23 10:04:26;;;;;;;6.22;1.58;;;;;;;;;;4988886;28;20149;-78
2022/05/23 10:06:53;;;;;;;6.70;1.17;;;;;;;;;;5022709;28;20132;-78
2022/05/23 10:09:32;;;;;;;6.85;1.48;;;;;;;;;;5026833;28;20053;-78
2022/05/23 10:12:01;;;;;;;6.40;1.83;;;;;;;;;;5007849;28;20047;-78
2022/05/23 10:14:40;;;;;;;3.67;1.15;;;;;;;;;;5008747;28;20053;-78
2022/05/23 10:17:08;;;;;;;3.38;1.10;;;;;;;;;;5023817;28;20107;-79
2022/05/23 10:19:37;;;;;;;5.82;1.40;;;;;;;;;;5008586;28;20119;-78
2022/05/23 10:22:16;;;;;;;3.38;1.00;;;;;;;;;;5024736;28;20148;-78
2022/05/23 10:24:47;;;;;;;6.63;0.95;;;;;;;;;;5009111;28;20052;-78
2022/05/23 10:27:19;;;;;;;5.00;1.20;;;;;;;;;;5025787;28;20164;-76
2022/05/23 10:29:55;;;;;;;3.63;1.17;;;;;;;;;;4997902;28;20160;-76
2022/05/23 10:32:34;;;;;;;2.38;1.20;;;;;;;;;;5011652;28;20151;-76
2022/05/23 10:35:07;;;;;;;2.35;1.17;;;;;;;;;;5017072;28;20712;-82
2022/05/23 10:37:40;;;;;;;3.13;1.38;;;;;;;;;;5004176;28;20788;-81
2022/05/23 10:43:00;;;;;;;2.85;1.20;;;;;;;;;;5022549;28;20089;-77
2022/05/23 10:45:36;;;;;;;2.30;1.20;;;;;;;;;;5027534;28;20072;-77
2022/05/23 10:48:03;;;;;;;5.05;1.38;;;;;;;;;;5026516;28;20567;-78
2022/05/23 10:50:49;;;;;;;3.03;1.20;;;;;;;;;;5010110;28;20690;-79
2022/05/23 10:53:24;;;;;;;4.55;1.38;;;;;;;;;;5023374;28;20096;-81
2022/05/23 10:56:00;;;;;;;2.70;1.05;;;;;;;;;;5006324;28;20045;-79
2022/05/23 10:58:36;;;;;;;3.42;1.20;;;;;;;;;;5007074;28;20177;-79
2022/05/23 11:01:28;;;;;;;4.57;1.30;;;;;;;;;;5007884;28;20102;-81
2022/05/23 11:04:13;;;;;;;3.22;0.90;;;;;;;;;;5024511;28;20136;-80
2022/05/23 11:06:43;;;;;;;5.60;1.15;;;;;;;;;;5018468;28;20144;-80
2022/05/23 11:09:19;;;;;;;2.17;1.10;;;;;;;;;;5023705;28;20156;-79
2022/05/23 11:12:07;;;;;;;6.53;1.52;;;;;;;;;;5022922;28;20137;-79
2022/05/23 11:14:52;;;;;;;3.08;1.20;;;;;;;;;;5022397;28;20132;-79
2022/05/23 11:17:26;;;;;;;2.92;1.10;;;;;;;;;;5005648;28;20151;-79
2022/05/23 11:19:59;;;;;;;4.65;1.25;;;;;;;;;;5022888;28;20050;-78
2022/05/23 11:22:33;;;;;;;2.57;1.13;;;;;;;;;;5022784;28;20050;-78
2022/05/23 11:25:07;;;;;;;3.72;1.50;;;;;;;;;;5004177;28;20642;-78
2022/05/23 11:35:59;;;;;;;2.15;0.70;;;;;;;;;;5024627;28;20142;-79
2022/05/23 11:38:28;;;;;;;5.82;1.50;;;;;;;;;;5024692;28;20466;-79
2022/05/23 11:41:04;;;;;;;3.95;1.50;;;;;;;;;;5002889;28;20081;-80
2022/05/23 11:43:32;;;;;;;4.63;1.40;;;;;;;;;;5022333;28;20145;-79
2022/05/23 11:46:00;;;;;;;2.35;0.90;;;;;;;;;;5023851;28;20142;-80
2022/05/23 11:48:39;;;;;;;2.35;0.90;;;;;;;;;;5023859;28;20053;-79
2022/05/23 11:51:17;;;;;;;25.25;2.78;;;;;;;;;;5004994;28;20647;-81
2022/05/23 11:53:57;;;;;;;6.32;1.10;;;;;;;;;;5001610;28;20081;-78
2022/05/23 11:56:36;;;;;;;9.48;1.67;;;;;;;;;;5018466;28;20057;-78
2022/05/23 11:59:05;;;;;;;5.97;1.67;;;;;;;;;;5004689;28;20125;-79
2022/05/23 12:01:32;;;;;;;2.55;1.05;;;;;;;;;;5022083;28;21325;-80
2022/05/23 12:04:02;;;;;;;1.65;0.88;;;;;;;;;;5004740;28;20119;-80
2022/05/23 12:06:29;;;;;;;7.85;1.17;;;;;;;;;;5021060;28;20056;-79
2022/05/23 12:09:03;;;;;;;3.80;1.10;;;;;;;;;;5005557;28;20073;-81
2022/05/23 12:11:34;;;;;;;5.55;1.10;;;;;;;;;;5003463;28;20136;-79
2022/05/23 12:14:20;;;;;;;5.15;1.30;;;;;;;;;;5006245;28;20125;-79
2022/05/23 12:16:51;;;;;;;4.65;1.13;;;;;;;;;;4996610;28;20131;-78
2022/05/23 12:19:33;;;;;;;3.72;1.00;;;;;;;;;;5022119;28;20056;-79
2022/05/23 12:22:22;;;;;;;4.20;1.00;;;;;;;;;;5004586;28;20092;-77
2022/05/23 12:25:02;;;;;;;5.57;1.45;;;;;;;;;;5008769;28;20076;-77
2022/05/23 12:27:39;;;;;;;4.53;0.82;;;;;;;;;;5002830;28;20049;-77
2022/05/23 12:30:22;;;;;;;4.93;1.15;;;;;;;;;;5022830;28;20124;-77
2022/05/23 12:32:55;;;;;;;1.77;0.90;;;;;;;;;;5006845;28;20053;-79
2022/05/23 12:35:28;;;;;;;2.13;0.80;;;;;;;;;;5002310;28;20121;-78
2022/05/23 12:38:11;;;;;;;6.03;1.10;;;;;;;;;;5019910;28;20072;-80
2022/05/23 12:40:48;;;;;;;7.82;1.05;;;;;;;;;;5023135;28;20795;-78
2022/05/23 12:43:15;;;;;;;6.18;0.88;;;;;;;;;;4995175;28;20049;-78
2022/05/23 12:45:42;;;;;;;2.30;0.93;;;;;;;;;;5011689;28;20045;-78
2022/05/23 12:48:18;;;;;;;5.88;1.60;;;;;;;;;;5017242;28;20132;-79
2022/05/23 12:50:54;;;;;;;16.20;2.17;;;;;;;;;;5016094;28;20835;-80
2022/05/23 12:53:24;;;;;;;40.47;5.35;;;;;;;;;;5022981;28;20064;-79
2022/05/23 12:55:54;;;;;;;2.85;1.00;;;;;;;;;;5020449;28;20041;-78
2022/05/23 12:58:27;;;;;;;44.65;2.22;;;;;;;;;;5020610;28;20049;-79
2022/05/23 13:00:58;;;;;;;3.17;1.00;;;;;;;;;;5022128;28;20148;-78
2022/05/23 13:03:31;;;;;;;1.92;1.05;;;;;;;;;;5022522;28;20092;-78
2022/05/23 13:06:05;;;;;;;7.38;1.20;;;;;;;;;;5019478;28;20049;-78
2022/05/23 13:08:45;;;;;;;5.00;1.50;;;;;;;;;;5021121;28;20065;-78
2022/05/23 13:11:20;;;;;;;4.43;1.30;;;;;;;;;;5022367;28;20061;-77
2022/05/23 13:13:49;;;;;;;4.07;1.10;;;;;;;;;;5006518;28;20143;-77
2022/05/23 13:16:20;;;;;;;5.45;1.25;;;;;;;;;;5005592;28;20119;-77
2022/05/23 13:27:09;;;;;;;2.42;1.10;;;;;;;;;;5030462;28;20164;-77
2022/05/23 13:29:36;;;;;;;7.57;1.48;;;;;;;;;;5023990;28;20077;-78
2022/05/23 13:32:08;;;;;;;2.75;1.25;;;;;;;;;;5023750;28;20077;-78
2022/05/23 13:34:38;;;;;;;6.68;1.40;;;;;;;;;;5006119;28;20049;-78
2022/05/23 13:37:06;;;;;;;11.52;1.40;;;;;;;;;;5006175;28;20119;-77
2022/05/23 13:39:42;;;;;;;5.03;1.27;;;;;;;;;;5025592;28;20069;-77
2022/05/23 13:42:21;;;;;;;4.95;1.17;;;;;;;;;;5005467;28;20132;-77
2022/05/23 13:44:49;;;;;;;6.38;1.35;;;;;;;;;;5009826;28;20092;-77
2022/05/23 13:47:27;;;;;;;8.43;1.23;;;;;;;;;;5014287;28;20132;-77
2022/05/23 13:50:05;;;;;;;12.88;1.52;;;;;;;;;;5021917;28;20092;-79
2022/05/23 13:52:40;;;;;;;3.15;0.80;;;;;;;;;;5027536;28;20129;-79
2022/05/23 13:55:13;;;;;;;2.53;1.20;;;;;;;;;;5006310;28;20140;-79
2022/05/23 13:57:45;;;;;;;5.85;1.25;;;;;;;;;;5017745;28;20049;-79
2022/05/23 14:00:15;;;;;;;4.78;1.17;;;;;;;;;;5030297;28;20077;-81
2022/05/23 14:02:59;;;;;;;10.25;1.17;;;;;;;;;;5010304;28;20042;-79
2022/05/23 14:05:30;;;;;;;3.30;1.20;;;;;;;;;;5028260;28;20073;-80
2022/05/23 14:07:57;;;;;;;4.00;1.55;;;;;;;;;;5034699;28;20107;-78
2022/05/23 14:10:27;;;;;;;4.53;1.23;;;;;;;;;;5030346;28;20103;-79
2022/05/23 14:12:56;;;;;;;3.20;1.42;;;;;;;;;;5014414;28;20160;-79
2022/05/23 14:15:27;;;;;;;8.10;1.05;;;;;;;;;;5027396;28;20625;-78
2022/05/23 14:18:01;;;;;;;5.28;1.48;;;;;;;;;;5010381;28;20077;-77
2022/05/23 14:20:41;;;;;;;4.18;1.00;;;;;;;;;;5024021;28;20081;-77
2022/05/23 14:23:08;;;;;;;4.78;1.20;;;;;;;;;;5008891;28;20126;-77
2022/05/23 14:26:05;;;;;;;3.05;1.00;;;;;;;;;;5011969;28;20052;-77
2022/05/23 14:28:46;;;;;;;12.40;1.92;;;;;;;;;;5002577;28;20128;-77
2022/05/23 14:31:27;;;;;;;2.63;0.90;;;;;;;;;;5023936;28;20535;-77
2022/05/23 14:33:58;;;;;;;4.20;1.38;;;;;;;;;;5010686;28;20054;-77
2022/05/23 14:36:26;;;;;;;7.80;1.20;;;;;;;;;;5025763;28;20064;-78
2022/05/23 14:38:55;;;;;;;5.13;1.20;;;;;;;;;;5025864;28;20161;-76
2022/05/23 14:41:22;;;;;;;4.13;1.23;;;;;;;;;;5025578;28;20140;-76
2022/05/23 14:44:05;;;;;;;2.83;1.08;;;;;;;;;;5025182;28;20048;-76
2022/05/23 14:46:35;;;;;;;3.35;1.15;;;;;;;;;;5023265;28;20077;-77
2022/05/23 14:49:05;;;;;;;8.10;1.25;;;;;;;;;;5025721;28;20137;-80
2022/05/23 14:51:36;;;;;;;6.72;0.95;;;;;;;;;;5026077;28;20699;-78
2022/05/23 15:02:10;;;;;;;3.75;1.25;;;;;;;;;;5049908;28;20131;-78
2022/05/23 15:04:38;;;;;;;6.50;1.10;;;;;;;;;;5048097;28;20160;-77
2022/05/23 15:07:06;;;;;;;3.67;1.40;;;;;;;;;;5044542;28;20099;-79
2022/05/23 15:09:33;;;;;;;3.85;0.98;;;;;;;;;;5025341;28;20133;-78
2022/05/23 15:15:36;;;;;;;2.55;1.48;;;;;;;;;;5244970;23;20115;-77
2022/05/23 15:18:04;;;;;;;9.98;1.20;;;;;;;;;;5025863;28;20045;-77
2022/05/23 15:20:32;;;;;;;5.00;1.40;;;;;;;;;;5014424;28;20133;-78
2022/05/23 15:22:59;;;;;;;2.35;1.10;;;;;;;;;;5013971;28;20134;-77
2022/05/23 15:25:29;;;;;;;2.60;1.40;;;;;;;;;;5017675;28;20140;-76
2022/05/23 15:27:57;;;;;;;8.02;1.45;;;;;;;;;;5025031;28;20054;-76
2022/05/23 15:30:25;;;;;;;1.95;1.10;;;;;;;;;;5025352;28;20491;-78
2022/05/23 15:32:53;;;;;;;3.08;1.30;;;;;;;;;;5035526;28;20107;-78
2022/05/23 15:35:21;;;;;;;2.45;1.10;;;;;;;;;;5047547;28;20163;-76
2022/05/23 15:37:48;;;;;;;4.70;1.30;;;;;;;;;;5020794;28;20132;-78
2022/05/23 15:40:16;;;;;;;4.85;1.25;;;;;;;;;;5026002;28;20141;-77
2022/05/23 15:42:44;;;;;;;8.43;1.63;;;;;;;;;;5017220;28;20048;-77
2022/05/23 15:45:15;;;;;;;3.13;1.40;;;;;;;;;;5046274;28;20150;-77
2022/05/23 15:47:42;;;;;;;3.30;1.40;;;;;;;;;;5034308;28;20460;-77
2022/05/23 15:50:13;;;;;;;3.08;1.10;;;;;;;;;;5008539;28;20142;-76
2022/05/23 15:52:40;;;;;;;3.65;1.35;;;;;;;;;;5043370;28;20052;-78
2022/05/23 15:55:08;;;;;;;3.42;1.30;;;;;;;;;;5045493;28;20091;-78
2022/05/23 15:57:38;;;;;;;4.05;1.23;;;;;;;;;;5024114;28;20111;-77
2022/05/23 16:00:10;;;;;;;6.18;1.40;;;;;;;;;;5026261;28;20161;-76
2022/05/23 16:02:38;;;;;;;3.13;1.27;;;;;;;;;;5005232;28;20108;-77
2022/05/23 16:05:05;;;;;;;2.00;1.20;;;;;;;;;;5001564;28;20109;-77
2022/05/23 16:07:33;;;;;;;3.53;1.50;;;;;;;;;;5023964;28;20132;-78
2022/05/23 16:10:00;;;;;;;3.08;1.17;;;;;;;;;;5024655;28;20092;-78
2022/05/23 16:12:28;;;;;;;2.55;1.13;;;;;;;;;;5013007;28;20107;-79
2022/05/23 16:14:56;;;;;;;6.35;1.27;;;;;;;;;;5042708;28;20853;-82
2022/05/23 16:17:23;;;;;;;2.65;0.93;;;;;;;;;;5024577;28;20080;-81
2022/05/23 16:19:51;;;;;;;5.30;1.20;;;;;;;;;;5028335;28;20485;-77